Time;durP1;ratioP1;P1;durP2;ratioP2;P2;SDS_P1;SDS_P2;PMS_P1;PMS_P2;Temp;Humidity;BMP_temperature;BMP_pressure;BME280_temperature;BME280_humidity;BME280_pressure;Samples;Min_cycle;Max_cycle;Signal;HPM_P1;HPM_P2
2022/01/26 00:07:06;;;;;;;0.03;0.03;;;2.80;99.90;;;;;;5068349;28;20120;-69
2022/01/26 00:09:31;;;;;;;0.05;0.05;;;3.00;99.90;;;;;;5068505;28;20471;-68
2022/01/26 00:11:57;;;;;;;0.00;0.00;;;2.70;99.90;;;;;;5067864;28;20048;-68
2022/01/26 00:14:22;;;;;;;0.00;0.00;;;2.80;99.90;;;;;;5068760;28;20098;-68
2022/01/26 00:16:48;;;;;;;1.77;1.08;;;2.70;99.90;;;;;;5086841;28;20089;-68
2022/01/26 00:19:26;;;;;;;0.00;0.00;;;2.90;99.90;;;;;;5086521;28;20071;-68
2022/01/26 00:21:52;;;;;;;0.10;0.10;;;2.70;99.90;;;;;;5067715;28;20095;-68
2022/01/26 00:29:23;;;;;;;0.00;0.00;;;2.60;99.90;;;;;;5059234;28;20136;-68
2022/01/26 00:40:40;;;;;;;0.20;0.20;;;2.60;99.90;;;;;;5048258;28;20048;-67
2022/01/26 00:43:19;;;;;;;0.20;0.20;;;2.50;99.90;;;;;;5064341;28;20045;-69
2022/01/26 00:45:45;;;;;;;0.00;0.00;;;2.50;99.90;;;;;;5064443;28;20088;-68
2022/01/26 00:48:11;;;;;;;0.10;0.10;;;2.50;99.90;;;;;;5065939;28;20068;-68
2022/01/26 00:50:39;;;;;;;1.95;1.00;;;2.50;99.90;;;;;;5063306;28;20048;-68
2022/01/26 00:53:06;;;;;;;0.03;0.03;;;3.30;99.90;;;;;;5047736;28;20044;-69
2022/01/26 00:55:32;;;;;;;0.20;0.20;;;2.50;99.90;;;;;;5047980;28;20052;-69
2022/01/26 00:57:58;;;;;;;0.00;0.00;;;3.00;99.90;;;;;;5064477;28;20134;-68
2022/01/26 01:00:26;;;;;;;0.00;0.00;;;2.50;99.90;;;;;;5047172;28;20488;-69
2022/01/26 01:02:54;;;;;;;0.00;0.00;;;2.50;99.90;;;;;;5065438;28;20052;-69
2022/01/26 01:05:25;;;;;;;0.10;0.10;;;2.50;99.90;;;;;;5047592;28;20773;-69
2022/01/26 01:07:57;;;;;;;0.03;0.03;;;2.50;99.90;;;;;;5047825;28;20049;-68
2022/01/26 01:10:24;;;;;;;0.00;0.00;;;2.50;99.90;;;;;;5047841;28;20062;-68
2022/01/26 01:12:55;;;;;;;0.15;0.15;;;2.50;99.90;;;;;;5064317;28;20449;-68
2022/01/26 01:15:21;;;;;;;0.10;0.10;;;2.50;99.90;;;;;;5065810;28;20083;-68
2022/01/26 01:17:52;;;;;;;0.25;0.25;;;2.50;99.90;;;;;;5064619;28;20048;-69
2022/01/26 01:20:56;;;;;;;0.00;0.00;;;2.50;99.90;;;;;;5064518;28;20044;-68
2022/01/26 01:26:25;;;;;;;0.28;0.28;;;2.50;99.90;;;;;;5065005;28;20084;-68
2022/01/26 01:31:45;;;;;;;0.03;0.03;;;2.40;99.90;;;;;;5062236;28;20052;-69
2022/01/26 01:34:13;;;;;;;0.05;0.05;;;2.40;99.90;;;;;;5066739;28;20055;-68
2022/01/26 01:36:43;;;;;;;0.00;0.00;;;3.60;99.90;;;;;;5065906;28;20072;-68
2022/01/26 01:39:09;;;;;;;0.00;0.00;;;3.40;99.90;;;;;;5084448;28;20059;-68
2022/01/26 01:41:37;;;;;;;0.10;0.10;;;2.40;99.90;;;;;;5084818;28;20044;-69
2022/01/26 01:44:04;;;;;;;0.00;0.00;;;2.40;99.90;;;;;;5050130;28;20058;-69
2022/01/26 01:46:30;;;;;;;0.00;0.00;;;2.40;99.90;;;;;;5085008;28;20124;-66
2022/01/26 01:48:56;;;;;;;0.10;0.10;;;2.70;99.90;;;;;;5066379;28;20044;-69
2022/01/26 01:51:29;;;;;;;0.00;0.00;;;2.40;99.90;;;;;;5084556;28;20059;-68
2022/01/26 01:53:55;;;;;;;0.00;0.00;;;2.40;99.90;;;;;;5084601;28;20051;-68
2022/01/26 01:56:24;;;;;;;0.10;0.10;;;2.40;99.90;;;;;;5084976;28;20031;-68
2022/01/26 01:58:50;;;;;;;0.00;0.00;;;2.30;99.90;;;;;;5066631;28;20063;-68
2022/01/26 02:01:16;;;;;;;0.00;0.00;;;2.40;99.90;;;;;;5066408;28;20388;-68
2022/01/26 02:03:41;;;;;;;0.00;0.00;;;2.40;99.90;;;;;;5084383;28;20050;-68
2022/01/26 02:06:07;;;;;;;0.32;0.32;;;3.30;99.90;;;;;;5083193;28;20076;-69
2022/01/26 02:08:33;;;;;;;0.10;0.10;;;2.30;99.90;;;;;;5084361;28;20040;-68
2022/01/26 02:10:59;;;;;;;0.00;0.00;;;2.30;99.90;;;;;;5084312;28;20039;-68
2022/01/26 02:13:38;;;;;;;0.00;0.00;;;2.40;99.90;;;;;;5084204;28;20048;-68
2022/01/26 02:49:08;;;;;;;0.00;0.00;;;3.00;99.90;;;;;;5082978;28;20182;-68
2022/01/26 02:57:13;;;;;;;0.00;0.00;;;2.20;99.90;;;;;;5063635;28;20056;-68
2022/01/26 03:05:12;;;;;;;0.30;0.30;;;2.20;99.90;;;;;;5062278;28;20507;-67
2022/01/26 03:07:46;;;;;;;0.00;0.00;;;2.10;99.90;;;;;;5061799;28;20052;-67
2022/01/26 03:10:24;;;;;;;0.70;0.70;;;2.10;99.90;;;;;;5063076;28;20105;-68
2022/01/26 03:15:22;;;;;;;0.03;0.03;;;2.20;99.90;;;;;;5045099;28;20084;-67
2022/01/26 03:20:15;;;;;;;20.52;2.55;;;2.10;99.90;;;;;;5062335;28;20365;-68
2022/01/26 03:28:24;;;;;;;0.10;0.10;;;2.10;99.90;;;;;;5035956;28;20605;-68
2022/01/26 03:36:10;;;;;;;1.23;1.13;;;2.10;99.90;;;;;;5044046;28;20048;-68
2022/01/26 03:38:43;;;;;;;0.00;0.00;;;2.10;99.90;;;;;;5062707;28;20094;-68
2022/01/26 03:43:41;;;;;;;0.55;0.55;;;2.10;99.90;;;;;;5044977;28;20451;-67
2022/01/26 03:46:06;;;;;;;0.73;0.73;;;2.10;99.90;;;;;;5062812;28;20040;-68
2022/01/26 03:48:32;;;;;;;0.00;0.00;;;2.10;99.90;;;;;;5044919;28;20052;-68
2022/01/26 03:50:59;;;;;;;2.20;1.02;;;2.10;99.90;;;;;;5061900;28;20055;-68
2022/01/26 03:53:24;;;;;;;0.00;0.00;;;2.00;99.90;;;;;;5045258;28;20053;-67
2022/01/26 03:55:50;;;;;;;0.00;0.00;;;2.00;99.90;;;;;;5063231;28;20082;-67
2022/01/26 03:58:16;;;;;;;0.00;0.00;;;2.00;99.90;;;;;;5062473;28;20040;-68
2022/01/26 04:00:41;;;;;;;0.08;0.08;;;2.10;99.90;;;;;;5044920;28;20556;-68
2022/01/26 04:03:07;;;;;;;0.00;0.00;;;2.00;99.90;;;;;;5062972;28;20056;-68
2022/01/26 04:05:32;;;;;;;0.00;0.00;;;2.00;99.90;;;;;;5043857;28;20051;-67
2022/01/26 04:08:05;;;;;;;0.00;0.00;;;2.00;99.90;;;;;;5044340;28;20507;-68
2022/01/26 04:13:14;;;;;;;0.00;0.00;;;2.00;99.90;;;;;;5062131;28;20069;-68
2022/01/26 04:15:40;;;;;;;0.05;0.05;;;2.30;99.90;;;;;;5044520;28;20105;-68
2022/01/26 04:18:10;;;;;;;0.03;0.03;;;2.00;99.90;;;;;;5028160;28;20476;-68
2022/01/26 04:20:40;;;;;;;0.47;0.28;;;2.00;99.90;;;;;;5061968;28;20056;-68
2022/01/26 04:23:15;;;;;;;0.00;0.00;;;2.00;99.90;;;;;;5062443;28;20105;-68
2022/01/26 04:25:44;;;;;;;0.00;0.00;;;2.00;99.90;;;;;;5062927;28;20048;-67
2022/01/26 04:28:15;;;;;;;6.63;0.93;;;2.00;99.90;;;;;;5068197;28;20570;-68
2022/01/26 04:30:41;;;;;;;0.00;0.00;;;2.00;99.90;;;;;;5066616;28;20119;-68
2022/01/26 04:33:07;;;;;;;0.00;0.00;;;2.00;99.90;;;;;;5062494;28;20128;-68
2022/01/26 04:35:33;;;;;;;0.00;0.00;;;2.00;99.90;;;;;;5061708;28;20627;-68
2022/01/26 04:41:01;;;;;;;0.00;0.00;;;1.90;99.90;;;;;;5065934;28;20060;-68
2022/01/26 04:43:31;;;;;;;0.00;0.00;;;1.90;99.90;;;;;;5047695;28;20094;-68
2022/01/26 04:45:56;;;;;;;0.00;0.00;;;1.90;99.90;;;;;;5065969;28;20056;-68
2022/01/26 04:48:25;;;;;;;0.00;0.00;;;1.90;99.90;;;;;;5048404;28;20045;-68
2022/01/26 04:50:51;;;;;;;0.00;0.00;;;1.90;99.90;;;;;;5047400;28;20049;-68
2022/01/26 04:53:17;;;;;;;0.28;0.28;;;1.90;99.90;;;;;;5065415;28;20127;-68
2022/01/26 04:55:42;;;;;;;0.00;0.00;;;1.90;99.90;;;;;;5065586;28;20546;-68
2022/01/26 04:58:08;;;;;;;0.32;0.32;;;1.90;99.90;;;;;;5065747;28;20071;-68
2022/01/26 05:00:34;;;;;;;1.48;0.22;;;1.90;99.90;;;;;;5065465;28;20137;-68
2022/01/26 05:02:59;;;;;;;0.00;0.00;;;2.40;99.90;;;;;;5047234;28;20559;-68
2022/01/26 05:05:25;;;;;;;0.05;0.05;;;1.90;99.90;;;;;;5046718;28;20052;-68
2022/01/26 05:07:51;;;;;;;0.00;0.00;;;2.00;99.90;;;;;;5065832;28;20131;-68
2022/01/26 05:10:16;;;;;;;0.85;0.85;;;1.90;99.90;;;;;;5046952;28;20043;-68
2022/01/26 05:12:42;;;;;;;0.30;0.30;;;2.10;99.90;;;;;;5065177;28;20052;-68
2022/01/26 05:15:08;;;;;;;0.00;0.00;;;1.90;99.90;;;;;;5047269;28;20049;-68
2022/01/26 05:17:35;;;;;;;0.43;0.43;;;1.90;99.90;;;;;;5047263;28;20064;-69
2022/01/26 05:20:01;;;;;;;0.00;0.00;;;1.90;99.90;;;;;;5064057;28;20454;-68
2022/01/26 05:22:29;;;;;;;0.00;0.00;;;1.90;99.90;;;;;;5047677;28;20048;-68
2022/01/26 05:24:55;;;;;;;0.10;0.10;;;1.90;99.90;;;;;;5064915;28;20040;-68
2022/01/26 05:27:21;;;;;;;0.00;0.00;;;1.90;99.90;;;;;;5050002;28;20074;-68
2022/01/26 05:29:46;;;;;;;0.65;0.65;;;1.90;99.90;;;;;;5055531;28;20499;-68
2022/01/26 05:32:12;;;;;;;0.30;0.30;;;1.90;99.90;;;;;;5065098;28;20040;-68
2022/01/26 05:34:37;;;;;;;0.63;0.63;;;2.50;99.90;;;;;;5046090;28;20082;-68
2022/01/26 05:37:03;;;;;;;0.00;0.00;;;1.90;99.90;;;;;;5065030;28;20058;-68
2022/01/26 05:39:29;;;;;;;0.20;0.20;;;1.90;99.90;;;;;;5046773;28;20062;-69
2022/01/26 05:41:54;;;;;;;0.52;0.40;;;1.90;99.90;;;;;;5064542;28;20041;-68
2022/01/26 05:44:20;;;;;;;3.83;2.53;;;1.80;99.90;;;;;;5065321;28;20040;-68
2022/01/26 05:46:49;;;;;;;0.30;0.17;;;1.90;99.90;;;;;;5064589;28;20036;-68
2022/01/26 05:49:16;;;;;;;0.00;0.00;;;1.90;99.90;;;;;;5045753;28;20075;-68
2022/01/26 05:51:45;;;;;;;0.10;0.10;;;1.80;99.90;;;;;;5064347;28;20048;-68
2022/01/26 05:54:11;;;;;;;0.08;0.08;;;1.90;99.90;;;;;;5046620;28;20049;-68
2022/01/26 05:56:37;;;;;;;0.00;0.00;;;1.80;99.90;;;;;;5046271;28;20491;-68
2022/01/26 05:59:03;;;;;;;1.38;1.27;;;1.80;99.90;;;;;;5046587;28;20045;-68
2022/01/26 06:01:29;;;;;;;5.03;1.85;;;1.80;99.90;;;;;;5047143;28;20041;-67
2022/01/26 06:03:55;;;;;;;0.00;0.00;;;1.80;99.90;;;;;;5063582;28;20071;-67
2022/01/26 06:06:21;;;;;;;0.22;0.22;;;1.80;99.90;;;;;;5046692;28;20045;-67
2022/01/26 06:08:47;;;;;;;0.00;0.00;;;1.70;99.90;;;;;;5064416;28;20551;-67
2022/01/26 06:11:12;;;;;;;0.00;0.00;;;1.70;99.90;;;;;;5046078;28;20048;-68
2022/01/26 06:13:38;;;;;;;0.10;0.10;;;1.80;99.90;;;;;;5064160;28;20037;-66
2022/01/26 06:16:04;;;;;;;0.35;0.30;;;1.60;99.90;;;;;;5064047;28;20075;-67
2022/01/26 06:18:30;;;;;;;0.00;0.00;;;1.80;99.90;;;;;;5064285;28;20048;-66
2022/01/26 06:20:56;;;;;;;0.00;0.00;;;1.80;99.90;;;;;;5045552;28;20044;-67
2022/01/26 06:23:24;;;;;;;1.45;0.95;;;1.80;99.90;;;;;;5064925;28;20090;-67
2022/01/26 06:25:52;;;;;;;0.00;0.00;;;1.80;99.90;;;;;;5046025;28;20059;-66
2022/01/26 06:28:17;;;;;;;0.00;0.00;;;1.70;99.90;;;;;;5053110;28;20040;-67
2022/01/26 06:30:46;;;;;;;0.10;0.10;;;1.70;99.90;;;;;;5067934;28;20495;-67
2022/01/26 06:33:13;;;;;;;3.40;1.45;;;1.80;99.90;;;;;;5045842;28;20131;-67
2022/01/26 06:35:40;;;;;;;0.00;0.00;;;1.80;99.90;;;;;;5062873;28;20120;-67
2022/01/26 06:38:05;;;;;;;0.00;0.00;;;2.40;99.90;;;;;;5045616;28;20040;-67
2022/01/26 06:40:31;;;;;;;0.90;0.55;;;1.80;99.90;;;;;;5063576;28;20514;-67
2022/01/26 06:43:01;;;;;;;0.32;0.15;;;1.70;99.90;;;;;;5062964;28;20036;-67
2022/01/26 06:45:33;;;;;;;2.90;0.70;;;1.60;99.90;;;;;;5045794;28;20499;-67
2022/01/26 06:48:39;;;;;;;0.00;0.00;;;1.70;99.90;;;;;;5063608;28;20037;-67
2022/01/26 06:51:00;;;;;;;0.00;0.00;;;1.70;99.90;;;;;;5062569;28;20056;-68
2022/01/26 06:53:27;;;;;;;0.00;0.00;;;1.70;99.90;;;;;;5063586;28;20127;-67
2022/01/26 06:55:52;;;;;;;0.00;0.00;;;1.70;99.90;;;;;;5045534;28;20119;-67
2022/01/26 06:58:18;;;;;;;0.00;0.00;;;1.70;99.90;;;;;;5045010;28;20493;-70
2022/01/26 07:00:44;;;;;;;0.47;0.47;;;1.70;99.90;;;;;;5062958;28;20052;-70
2022/01/26 07:03:10;;;;;;;0.00;0.00;;;3.20;99.90;;;;;;5063546;28;20423;-69
2022/01/26 07:05:35;;;;;;;0.00;0.00;;;1.70;99.90;;;;;;5062228;28;20049;-68
2022/01/26 07:08:02;;;;;;;0.00;0.00;;;2.90;99.90;;;;;;5045545;28;20048;-69
2022/01/26 07:10:28;;;;;;;0.43;0.15;;;1.70;99.90;;;;;;5045606;28;20526;-68
2022/01/26 07:12:54;;;;;;;0.10;0.10;;;1.70;99.90;;;;;;5062586;28;20064;-69
2022/01/26 07:23:22;;;;;;;1.25;1.17;;;1.70;99.90;;;;;;5063733;28;20086;-68
2022/01/26 07:25:48;;;;;;;0.35;0.35;;;1.80;99.90;;;;;;5044939;28;20055;-68
2022/01/26 07:28:14;;;;;;;0.43;0.43;;;1.80;99.90;;;;;;5069219;28;20044;-69
2022/01/26 07:30:40;;;;;;;0.10;0.10;;;1.80;99.90;;;;;;5067649;28;20048;-68
2022/01/26 07:33:06;;;;;;;0.32;0.32;;;1.80;99.90;;;;;;5062951;28;20702;-68
2022/01/26 07:35:33;;;;;;;0.00;0.00;;;1.80;99.90;;;;;;5062273;28;20124;-68
2022/01/26 07:38:01;;;;;;;0.40;0.40;;;1.80;99.90;;;;;;5062728;28;20040;-68
2022/01/26 07:40:27;;;;;;;0.45;0.45;;;1.80;99.90;;;;;;5063248;28;20453;-68
2022/01/26 07:42:53;;;;;;;0.00;0.00;;;1.80;99.90;;;;;;5045399;28;20044;-69
2022/01/26 07:45:20;;;;;;;0.00;0.00;;;1.80;99.90;;;;;;5045396;28;20083;-68
2022/01/26 07:47:47;;;;;;;0.10;0.10;;;1.80;99.90;;;;;;5044560;28;20071;-69
2022/01/26 07:50:15;;;;;;;2.95;2.75;;;1.80;99.90;;;;;;5043916;28;20135;-68
2022/01/26 07:52:42;;;;;;;0.00;0.00;;;1.80;99.90;;;;;;5044898;28;20128;-68
2022/01/26 07:55:10;;;;;;;0.52;0.52;;;1.80;99.90;;;;;;5044551;28;20044;-68
2022/01/26 07:57:36;;;;;;;0.00;0.00;;;1.80;99.90;;;;;;5044828;28;20056;-68
2022/01/26 08:00:04;;;;;;;0.00;0.00;;;1.90;99.90;;;;;;5044688;28;20176;-68
2022/01/26 08:02:29;;;;;;;0.70;0.70;;;1.90;99.90;;;;;;5044593;28;20126;-68
2022/01/26 08:04:56;;;;;;;0.10;0.10;;;1.90;99.90;;;;;;5061363;28;20102;-68
2022/01/26 08:07:21;;;;;;;0.10;0.10;;;1.90;99.90;;;;;;5063294;28;20048;-68
2022/01/26 08:09:47;;;;;;;0.10;0.10;;;3.20;99.90;;;;;;5061145;28;20402;-68
2022/01/26 08:12:15;;;;;;;0.38;0.38;;;1.90;99.90;;;;;;5066318;28;20782;-68
2022/01/26 08:14:41;;;;;;;0.00;0.00;;;1.90;99.90;;;;;;5047563;28;20095;-69
2022/01/26 08:17:08;;;;;;;0.00;0.00;;;1.90;99.90;;;;;;5066379;28;20418;-68
2022/01/26 08:19:34;;;;;;;0.00;0.00;;;1.90;99.90;;;;;;5065240;28;20048;-68
2022/01/26 08:22:01;;;;;;;0.00;0.00;;;1.90;99.90;;;;;;5065831;28;20474;-68
2022/01/26 08:24:28;;;;;;;1.45;1.08;;;1.90;99.90;;;;;;5066497;28;20119;-68
2022/01/26 08:26:56;;;;;;;0.00;0.00;;;1.90;99.90;;;;;;5065918;28;20060;-68
2022/01/26 08:29:32;;;;;;;0.70;0.52;;;1.90;99.90;;;;;;5077684;28;20047;-68
2022/01/26 08:31:57;;;;;;;0.00;0.00;;;1.90;99.90;;;;;;5047872;28;20048;-68
2022/01/26 08:34:23;;;;;;;0.00;0.00;;;1.90;99.90;;;;;;5065966;28;20360;-68
2022/01/26 08:36:49;;;;;;;0.00;0.00;;;1.90;99.90;;;;;;5066375;28;20589;-68
2022/01/26 08:39:16;;;;;;;2.15;0.40;;;2.00;99.90;;;;;;5065161;28;20041;-66
2022/01/26 08:41:43;;;;;;;0.63;0.10;;;1.80;99.90;;;;;;5065770;28;20044;-69
2022/01/26 08:44:08;;;;;;;0.00;0.00;;;2.00;99.90;;;;;;5031008;28;20043;-68
2022/01/26 08:46:34;;;;;;;2.67;2.45;;;2.00;99.90;;;;;;5066123;28;20044;-67
2022/01/26 08:49:01;;;;;;;0.00;0.00;;;2.00;99.90;;;;;;5064483;28;20063;-66
2022/01/26 08:51:26;;;;;;;0.00;0.00;;;2.00;99.90;;;;;;5065907;28;20048;-68
2022/01/26 08:53:52;;;;;;;0.55;0.55;;;2.00;99.90;;;;;;5048385;28;20055;-67
2022/01/26 08:56:18;;;;;;;0.00;0.00;;;2.00;99.90;;;;;;5065825;28;20042;-67
2022/01/26 08:58:43;;;;;;;0.03;0.03;;;2.00;99.90;;;;;;5047754;28;20082;-67
2022/01/26 09:01:09;;;;;;;0.00;0.00;;;2.00;99.90;;;;;;5047581;28;20120;-70
2022/01/26 09:03:39;;;;;;;0.00;0.00;;;2.00;99.90;;;;;;5064590;28;20048;-68
2022/01/26 09:06:06;;;;;;;0.00;0.00;;;2.10;99.90;;;;;;5031512;28;20041;-68
2022/01/26 09:08:32;;;;;;;0.00;0.00;;;2.10;99.90;;;;;;5065161;28;20057;-67
2022/01/26 09:11:01;;;;;;;0.80;0.80;;;2.10;99.90;;;;;;5047051;28;20036;-66
2022/01/26 09:13:32;;;;;;;0.10;0.10;;;2.10;99.90;;;;;;5076239;28;20090;-67
2022/01/26 09:16:00;;;;;;;0.00;0.00;;;2.10;99.90;;;;;;5068662;28;20086;-67
2022/01/26 09:18:46;;;;;;;0.10;0.10;;;2.10;99.90;;;;;;5064708;28;20044;-67
2022/01/26 09:21:12;;;;;;;0.00;0.00;;;2.10;99.90;;;;;;5065225;28;20372;-68
2022/01/26 09:23:38;;;;;;;0.00;0.00;;;2.10;99.90;;;;;;5064364;28;20045;-68
2022/01/26 09:26:04;;;;;;;1.27;0.32;;;2.20;99.90;;;;;;5065203;28;20036;-67
2022/01/26 09:28:30;;;;;;;0.00;0.00;;;2.20;99.90;;;;;;5058326;28;20082;-69
2022/01/26 09:30:56;;;;;;;0.00;0.00;;;2.20;99.90;;;;;;5049253;28;20641;-68
2022/01/26 09:33:21;;;;;;;2.72;0.55;;;2.20;99.90;;;;;;5051842;28;20040;-67
2022/01/26 09:35:47;;;;;;;0.05;0.05;;;2.20;99.90;;;;;;5074355;28;20506;-67
2022/01/26 09:38:13;;;;;;;0.00;0.00;;;2.20;99.90;;;;;;5068420;28;20644;-67
2022/01/26 09:40:39;;;;;;;0.00;0.00;;;2.20;99.90;;;;;;5046712;28;20490;-67
2022/01/26 09:43:06;;;;;;;0.00;0.00;;;2.20;99.90;;;;;;5046671;28;20076;-67
2022/01/26 09:45:34;;;;;;;0.00;0.00;;;2.20;99.90;;;;;;5064530;28;20044;-67
2022/01/26 09:48:04;;;;;;;0.00;0.00;;;2.20;99.90;;;;;;5064755;28;20051;-67
2022/01/26 09:50:31;;;;;;;0.00;0.00;;;2.30;99.90;;;;;;5045365;28;20057;-65
2022/01/26 09:52:57;;;;;;;2.85;1.20;;;2.60;99.90;;;;;;5064791;28;20045;-65
2022/01/26 09:55:23;;;;;;;0.40;0.40;;;2.30;99.90;;;;;;5047524;28;20387;-62
2022/01/26 09:57:49;;;;;;;0.30;0.30;;;2.30;99.90;;;;;;5065001;28;20044;-62
2022/01/26 10:00:16;;;;;;;0.00;0.00;;;2.40;99.90;;;;;;5064339;28;20039;-62
2022/01/26 10:02:43;;;;;;;0.38;0.25;;;2.40;99.90;;;;;;5064717;28;20384;-62
2022/01/26 10:05:12;;;;;;;1.92;1.75;;;2.40;99.90;;;;;;5045686;28;20057;-62
2022/01/26 10:08:10;;;;;;;0.20;0.20;;;2.40;99.90;;;;;;5045886;28;20048;-62
2022/01/26 10:16:46;;;;;;;0.38;0.38;;;2.60;99.90;;;;;;5064702;28;20088;-62
2022/01/26 10:18:54;;;;;;;0.20;0.20;;;2.60;99.90;;;;;;5060681;28;20045;-62
2022/01/26 10:21:20;;;;;;;0.00;0.00;;;2.60;99.90;;;;;;5064789;28;20071;-62
2022/01/26 10:23:45;;;;;;;0.00;0.00;;;2.60;99.90;;;;;;5063845;28;20037;-62
2022/01/26 10:26:13;;;;;;;0.00;0.00;;;3.20;99.90;;;;;;5064045;28;20037;-62
2022/01/26 10:28:56;;;;;;;0.00;0.00;;;2.70;99.90;;;;;;5074125;28;20036;-62
2022/01/26 10:31:39;;;;;;;0.00;0.00;;;2.70;99.90;;;;;;5046138;28;20050;-62
2022/01/26 10:34:08;;;;;;;0.00;0.00;;;2.80;99.90;;;;;;5062520;28;20091;-62
2022/01/26 10:36:40;;;;;;;0.00;0.00;;;2.80;99.90;;;;;;5046203;28;20341;-62
2022/01/26 10:39:08;;;;;;;0.00;0.00;;;2.80;99.90;;;;;;5045854;28;20055;-62
2022/01/26 10:41:35;;;;;;;0.10;0.10;;;2.90;99.90;;;;;;5063694;28;20036;-62
2022/01/26 10:44:02;;;;;;;0.05;0.05;;;2.90;99.90;;;;;;5063918;28;20040;-62
2022/01/26 10:46:41;;;;;;;2.20;1.60;;;2.90;99.90;;;;;;5045619;28;20495;-62
2022/01/26 10:54:37;;;;;;;1.20;1.17;;;3.00;99.90;;;;;;5063753;28;20052;-62
2022/01/26 10:57:13;;;;;;;0.00;0.00;;;3.00;99.90;;;;;;5045854;28;20095;-62
2022/01/26 10:59:44;;;;;;;0.00;0.00;;;3.00;99.90;;;;;;5045787;28;20398;-62
2022/01/26 11:02:11;;;;;;;1.15;0.45;;;3.10;99.90;;;;;;5063721;28;20044;-64
2022/01/26 11:04:42;;;;;;;0.00;0.00;;;3.10;99.90;;;;;;5062858;28;20048;-62
2022/01/26 11:07:15;;;;;;;0.20;0.20;;;3.10;99.90;;;;;;5063462;28;20046;-62
2022/01/26 11:09:45;;;;;;;0.10;0.10;;;3.10;99.90;;;;;;5063234;28;20045;-62
2022/01/26 11:12:16;;;;;;;0.00;0.00;;;3.10;99.90;;;;;;5063423;28;20048;-62
2022/01/26 11:14:47;;;;;;;0.00;0.00;;;3.20;99.90;;;;;;5062907;28;20048;-62
2022/01/26 11:17:27;;;;;;;0.20;0.20;;;3.20;99.90;;;;;;5063532;28;20044;-62
2022/01/26 11:19:53;;;;;;;0.43;0.43;;;3.20;99.90;;;;;;5044514;28;20075;-62
2022/01/26 11:22:26;;;;;;;1.55;0.90;;;3.20;99.90;;;;;;5063839;28;20430;-64
2022/01/26 11:24:53;;;;;;;0.00;0.00;;;3.20;99.90;;;;;;5063340;28;20041;-62
2022/01/26 11:27:19;;;;;;;0.00;0.00;;;3.30;99.90;;;;;;5065964;28;20082;-62
2022/01/26 11:29:49;;;;;;;0.85;0.85;;;3.20;99.90;;;;;;5054010;28;20082;-62
2022/01/26 11:32:28;;;;;;;0.00;0.00;;;3.20;99.90;;;;;;5045475;28;20055;-62
2022/01/26 11:34:55;;;;;;;0.00;0.00;;;3.20;99.90;;;;;;5043422;28;20044;-63
2022/01/26 11:37:49;;;;;;;0.85;0.85;;;3.20;99.90;;;;;;5063779;28;20060;-62
2022/01/26 11:46:11;;;;;;;0.10;0.10;;;3.30;99.90;;;;;;5065355;28;20048;-62
2022/01/26 11:48:38;;;;;;;0.47;0.47;;;3.30;99.90;;;;;;5051177;28;20044;-63
2022/01/26 11:51:05;;;;;;;0.13;0.13;;;3.30;99.90;;;;;;5074685;28;20048;-63
2022/01/26 11:53:32;;;;;;;0.13;0.13;;;3.40;99.90;;;;;;5060309;28;20486;-63
2022/01/26 11:56:10;;;;;;;0.45;0.13;;;3.40;99.90;;;;;;5087159;28;20044;-63
2022/01/26 11:58:44;;;;;;;0.08;0.08;;;3.30;99.90;;;;;;5068458;28;20052;-63
2022/01/26 12:01:28;;;;;;;1.42;1.33;;;3.30;99.90;;;;;;5055149;28;20040;-63
2022/01/26 12:04:09;;;;;;;13.17;3.00;;;3.30;99.90;;;;;;5047747;28;20044;-63
2022/01/26 12:06:42;;;;;;;0.00;0.00;;;3.90;99.90;;;;;;5067121;28;20037;-63
2022/01/26 12:09:09;;;;;;;0.00;0.00;;;3.30;99.90;;;;;;5049035;28;20117;-62
2022/01/26 12:11:36;;;;;;;0.00;0.00;;;3.30;99.90;;;;;;5066200;28;20097;-63
2022/01/26 12:14:12;;;;;;;0.85;0.28;;;3.30;99.90;;;;;;5066248;28;20063;-63
2022/01/26 12:16:46;;;;;;;1.75;0.45;;;3.30;99.90;;;;;;5048597;28;20098;-63
2022/01/26 12:35:50;;;;;;;0.52;0.52;;;3.50;99.90;;;;;;5066658;28;20097;-64
2022/01/26 12:43:49;;;;;;;0.05;0.05;;;3.50;99.90;;;;;;5065694;28;20135;-64
2022/01/26 12:46:26;;;;;;;0.15;0.08;;;3.50;99.90;;;;;;5065870;28;20047;-65
2022/01/26 12:49:00;;;;;;;44.40;1.65;;;3.60;99.90;;;;;;5047780;28;20048;-63
2022/01/26 12:51:29;;;;;;;0.10;0.10;;;3.60;99.90;;;;;;5065833;28;20048;-64
2022/01/26 12:54:01;;;;;;;0.75;0.52;;;3.60;99.90;;;;;;5065675;28;20041;-63
2022/01/26 12:56:30;;;;;;;0.00;0.00;;;3.60;99.90;;;;;;5065316;28;20040;-64
2022/01/26 12:59:04;;;;;;;13.57;3.00;;;3.60;99.90;;;;;;5064900;28;20057;-64
2022/01/26 13:01:30;;;;;;;0.20;0.20;;;3.50;99.90;;;;;;5047999;28;20040;-64
2022/01/26 13:04:01;;;;;;;0.00;0.00;;;3.50;99.90;;;;;;5064746;28;20131;-64
2022/01/26 13:06:29;;;;;;;0.00;0.00;;;3.50;99.90;;;;;;5047609;28;20044;-64
2022/01/26 13:08:56;;;;;;;0.10;0.10;;;3.50;99.90;;;;;;5065454;28;20057;-65
2022/01/26 13:11:28;;;;;;;2.03;0.70;;;3.50;99.90;;;;;;5065906;28;20045;-64
2022/01/26 13:14:21;;;;;;;0.10;0.10;;;3.50;99.90;;;;;;5065119;28;20053;-64
2022/01/26 13:17:19;;;;;;;0.50;0.50;;;3.50;99.90;;;;;;5065796;28;20049;-64
2022/01/26 13:33:54;;;;;;;2.72;0.45;;;3.60;99.90;;;;;;5063969;28;20113;-64
2022/01/26 13:44:35;;;;;;;0.40;0.40;;;3.60;99.90;;;;;;5046437;28;20131;-64
2022/01/26 13:49:45;;;;;;;0.10;0.10;;;3.70;99.90;;;;;;5063636;28;20063;-64
2022/01/26 13:59:46;;;;;;;0.00;0.00;;;3.70;99.90;;;;;;5064469;28;20102;-64
2022/01/26 14:02:13;;;;;;;1.17;1.08;;;3.70;99.90;;;;;;5064765;28;20132;-64
2022/01/26 14:04:39;;;;;;;0.00;0.00;;;3.70;99.90;;;;;;5063132;28;20533;-64
2022/01/26 14:07:07;;;;;;;0.00;0.00;;;3.70;99.90;;;;;;5046608;28;20515;-64
2022/01/26 14:09:32;;;;;;;0.68;0.45;;;3.80;99.90;;;;;;5063853;28;20290;-64
2022/01/26 14:12:00;;;;;;;0.00;0.00;;;3.70;99.90;;;;;;5063714;28;20135;-64
2022/01/26 14:14:34;;;;;;;0.00;0.00;;;3.70;99.90;;;;;;5066816;28;20380;-64
2022/01/26 14:17:02;;;;;;;0.00;0.00;;;3.80;99.90;;;;;;5069085;28;20075;-64
2022/01/26 14:19:37;;;;;;;1.02;1.02;;;3.80;99.90;;;;;;5068692;28;20187;-64
2022/01/26 14:22:29;;;;;;;;;;;3.80;99.90;;;;;;5068656;28;20076;-64
2022/01/26 14:25:05;;;;;;;7.70;0.38;;;3.80;99.90;;;;;;5069120;28;20309;-64
2022/01/26 14:27:40;;;;;;;0.00;0.00;;;3.80;99.90;;;;;;5050439;28;20075;-64
2022/01/26 14:35:54;;;;;;;0.35;0.20;;;3.80;99.90;;;;;;4996822;28;20519;-64
2022/01/26 15:33:08;;;;;;;0.10;0.10;;;4.20;99.90;;;;;;5069129;28;20344;-59
2022/01/26 15:35:05;;;;;;;0.00;0.00;;;4.20;99.90;;;;;;5067114;28;20140;-59
2022/01/26 15:40:50;;;;;;;11.07;0.30;;;4.30;99.90;;;;;;5067481;28;20041;-60
2022/01/26 16:20:41;;;;;;;0.00;0.00;;;4.30;99.90;;;;;;5066951;28;20048;-60
2022/01/26 17:11:07;;;;;;;0.57;0.57;;;4.50;99.90;;;;;;5072018;28;20692;-59
2022/01/26 17:48:22;;;;;;;0.10;0.10;;;4.50;99.90;;;;;;5068959;28;20040;-58
2022/01/26 18:22:22;;;;;;;0.00;0.00;;;4.60;99.90;;;;;;5039792;28;20519;-60
2022/01/26 18:50:08;;;;;;;0.08;0.05;;;4.60;99.90;;;;;;5067731;28;20048;-59
2022/01/26 18:52:34;;;;;;;0.52;0.52;;;4.60;99.90;;;;;;5051193;28;20052;-60
2022/01/26 18:54:59;;;;;;;0.00;0.00;;;4.70;99.90;;;;;;5067275;28;20040;-59
2022/01/26 18:57:25;;;;;;;0.17;0.17;;;4.70;99.90;;;;;;5050473;28;20052;-59
2022/01/26 18:59:51;;;;;;;0.35;0.30;;;4.70;99.90;;;;;;5050996;28;20617;-59
2022/01/26 19:02:16;;;;;;;0.93;0.70;;;4.70;99.90;;;;;;5067778;28;20471;-59
2022/01/26 19:04:46;;;;;;;0.30;0.30;;;4.70;99.90;;;;;;5051517;28;20632;-60
2022/01/26 19:07:12;;;;;;;0.00;0.00;;;5.00;99.90;;;;;;5050550;28;20059;-59
2022/01/26 19:09:42;;;;;;;3.10;1.55;;;4.80;99.90;;;;;;5066260;28;20064;-60
2022/01/26 19:12:12;;;;;;;0.30;0.30;;;4.80;99.90;;;;;;5067636;28;20411;-59
2022/01/26 19:14:42;;;;;;;0.43;0.17;;;4.80;99.90;;;;;;5068565;28;20602;-60
2022/01/26 19:17:21;;;;;;;1.20;1.02;;;4.80;99.90;;;;;;5067661;28;20040;-59
2022/01/26 19:20:03;;;;;;;0.88;0.63;;;4.80;99.90;;;;;;5067427;28;20044;-59
2022/01/26 19:32:47;;;;;;;0.00;0.00;;;5.20;99.90;;;;;;5067801;28;20043;-59
2022/01/26 19:51:39;;;;;;;0.10;0.10;;;5.00;99.90;;;;;;5067220;28;20048;-60
2022/01/26 19:54:05;;;;;;;0.00;0.00;;;5.20;99.90;;;;;;5067836;28;20616;-60
2022/01/26 19:56:31;;;;;;;0.00;0.00;;;5.10;99.90;;;;;;5067056;28;20037;-61
2022/01/26 19:58:56;;;;;;;0.40;0.40;;;5.20;99.90;;;;;;5068503;28;20076;-61
2022/01/26 20:01:22;;;;;;;0.05;0.05;;;5.20;99.90;;;;;;5052543;28;20140;-61
2022/01/26 20:03:48;;;;;;;0.10;0.10;;;5.20;99.90;;;;;;5066180;28;20064;-61
2022/01/26 20:06:13;;;;;;;0.38;0.38;;;5.20;99.90;;;;;;5050204;28;20035;-60
2022/01/26 20:08:52;;;;;;;1.92;0.60;;;5.20;99.90;;;;;;5070916;28;20102;-60
2022/01/26 20:11:26;;;;;;;0.10;0.10;;;5.30;99.90;;;;;;5071793;28;20123;-61
2022/01/26 20:13:55;;;;;;;0.10;0.10;;;5.30;99.90;;;;;;5049448;28;20055;-61
2022/01/26 20:16:20;;;;;;;1.02;1.02;;;5.30;99.90;;;;;;5052295;28;20193;-60
2022/01/26 20:18:46;;;;;;;0.00;0.00;;;5.30;99.90;;;;;;5047381;28;20546;-62
2022/01/26 20:21:11;;;;;;;0.38;0.38;;;5.30;99.90;;;;;;5051949;28;20048;-62
2022/01/26 20:23:38;;;;;;;0.30;0.30;;;5.30;99.90;;;;;;5051766;28;20140;-60
2022/01/26 20:26:09;;;;;;;0.75;0.75;;;5.40;99.90;;;;;;5052940;28;20108;-60